createdAt,value
2022-12-03T00:01:44.578Z,4.20
2022-12-03T00:04:11.529Z,4.20
2022-12-03T00:06:38.559Z,4.20
2022-12-03T00:09:05.733Z,4.20
2022-12-03T00:11:32.896Z,4.10
2022-12-03T00:13:59.987Z,4.10
2022-12-03T00:16:27.217Z,4.00
2022-12-03T00:18:54.274Z,4.00
2022-12-03T00:21:21.212Z,4.00
2022-12-03T00:23:48.343Z,4.00
2022-12-03T00:26:15.332Z,3.90
2022-12-03T00:28:44.704Z,3.90
2022-12-03T00:31:11.753Z,3.70
2022-12-03T00:33:39.020Z,3.60
2022-12-03T00:36:06.411Z,3.50
2022-12-03T00:38:33.265Z,3.40
2022-12-03T00:41:00.259Z,3.40
2022-12-03T00:43:27.178Z,3.40
2022-12-03T00:45:54.121Z,3.40
2022-12-03T00:48:23.324Z,3.40
2022-12-03T00:50:50.420Z,3.40
2022-12-03T00:53:17.593Z,3.50
2022-12-03T00:55:44.667Z,3.60
2022-12-03T00:58:11.628Z,3.60
2022-12-03T01:00:40.867Z,3.50
2022-12-03T01:03:10.167Z,3.60
2022-12-03T01:05:37.179Z,3.50
2022-12-03T01:08:06.382Z,3.50
2022-12-03T01:10:33.556Z,3.50
2022-12-03T01:13:02.975Z,3.40
2022-12-03T01:15:29.983Z,3.30
2022-12-03T01:17:56.914Z,3.30
2022-12-03T01:20:24.265Z,3.20
2022-12-03T01:22:51.235Z,3.00
2022-12-03T01:25:20.566Z,2.90
2022-12-03T01:27:47.519Z,2.90
2022-12-03T01:30:17.362Z,2.90
2022-12-03T01:32:48.728Z,2.90
2022-12-03T01:35:15.798Z,3.00
2022-12-03T01:37:42.856Z,3.00
2022-12-03T01:40:19.168Z,3.10
2022-12-03T01:42:46.365Z,3.20
2022-12-03T01:45:22.137Z,3.30
2022-12-03T01:47:49.370Z,3.30
2022-12-03T01:50:30.226Z,3.30
2022-12-03T01:53:00.441Z,3.40
2022-12-03T01:55:30.647Z,3.40
2022-12-03T01:58:00.772Z,3.40
2022-12-03T02:00:30.878Z,3.50
2022-12-03T02:03:07.746Z,3.60
2022-12-03T02:05:38.239Z,3.60
2022-12-03T02:08:34.804Z,3.70
2022-12-03T02:11:28.030Z,3.70
2022-12-03T02:13:59.386Z,3.70
2022-12-03T02:16:28.516Z,3.60
2022-12-03T02:18:59.588Z,3.50
2022-12-03T02:21:44.510Z,3.40
2022-12-03T02:24:36.941Z,3.40
2022-12-03T02:27:06.136Z,3.30
2022-12-03T02:29:33.147Z,3.30
2022-12-03T02:32:02.824Z,3.40
2022-12-03T02:34:34.005Z,3.50
2022-12-03T02:37:07.646Z,3.60
2022-12-03T02:39:40.177Z,3.50
2022-12-03T02:42:26.228Z,3.60
2022-12-03T02:44:53.882Z,3.50
2022-12-03T02:47:23.713Z,3.60
2022-12-03T02:49:50.811Z,3.70
2022-12-03T02:52:17.682Z,3.70
2022-12-03T02:54:47.813Z,3.60
2022-12-03T02:57:18.494Z,3.60
2022-12-03T02:59:46.080Z,3.60
2022-12-03T03:02:14.526Z,3.70
2022-12-03T03:04:42.537Z,3.80
2022-12-03T03:07:12.756Z,3.80
2022-12-03T03:09:42.415Z,3.80
2022-12-03T03:12:12.762Z,3.80
2022-12-03T03:14:41.946Z,3.70
2022-12-03T03:17:11.821Z,3.70
2022-12-03T03:19:41.985Z,3.80
2022-12-03T03:22:14.633Z,3.70
2022-12-03T03:24:43.872Z,3.80
2022-12-03T03:27:13.540Z,3.80
2022-12-03T03:29:42.664Z,3.80
2022-12-03T03:32:14.598Z,3.80
2022-12-03T03:34:44.021Z,3.80
2022-12-03T03:37:10.998Z,3.70
2022-12-03T03:39:38.328Z,3.60
2022-12-03T03:42:05.197Z,3.70
2022-12-03T03:44:32.884Z,3.70
2022-12-03T03:47:00.425Z,3.80
2022-12-03T03:49:30.234Z,3.80
2022-12-03T03:51:57.483Z,3.80
2022-12-03T03:54:24.610Z,3.80
2022-12-03T03:56:54.476Z,3.80
2022-12-03T03:59:21.542Z,3.80
2022-12-03T04:01:48.719Z,3.70
2022-12-03T04:04:23.997Z,3.70
2022-12-03T04:06:50.974Z,3.80
2022-12-03T04:09:18.056Z,3.80
2022-12-03T04:12:03.689Z,3.80
2022-12-03T04:14:30.601Z,3.70
2022-12-03T04:16:57.646Z,3.70
2022-12-03T04:19:24.646Z,3.80
2022-12-03T04:22:10.042Z,3.80
2022-12-03T04:24:39.230Z,3.70
2022-12-03T04:27:24.837Z,3.80
2022-12-03T04:29:51.742Z,3.80
2022-12-03T04:32:37.523Z,3.80
2022-12-03T04:35:23.905Z,3.80
2022-12-03T04:37:50.987Z,3.80
2022-12-03T04:40:36.410Z,3.80
2022-12-03T04:43:08.227Z,3.80
2022-12-03T04:45:36.612Z,3.90
2022-12-03T04:48:03.765Z,3.80
2022-12-03T04:50:30.643Z,3.80
2022-12-03T04:52:59.638Z,3.70
2022-12-03T04:55:26.659Z,3.80
2022-12-03T04:57:53.568Z,3.80
2022-12-03T05:00:20.637Z,3.80
2022-12-03T05:02:47.761Z,3.90
2022-12-03T05:05:14.843Z,3.90
2022-12-03T05:07:42.127Z,3.80
2022-12-03T05:10:11.790Z,3.80
2022-12-03T05:12:40.953Z,3.70
2022-12-03T05:15:08.375Z,3.70
2022-12-03T05:17:37.383Z,3.70
2022-12-03T05:20:25.295Z,3.70
2022-12-03T05:22:54.446Z,3.80
2022-12-03T05:25:23.530Z,3.80
2022-12-03T05:27:50.527Z,3.80
2022-12-03T05:30:17.594Z,3.90
2022-12-03T05:32:44.577Z,3.90
2022-12-03T05:35:11.938Z,4.00
2022-12-03T05:37:41.230Z,4.00
2022-12-03T05:40:08.751Z,3.90
2022-12-03T05:42:54.381Z,4.00
2022-12-03T05:45:32.472Z,3.90
2022-12-03T05:48:00.298Z,3.80
2022-12-03T05:50:30.442Z,3.90
2022-12-03T05:53:00.375Z,3.90
2022-12-03T05:55:28.041Z,3.90
2022-12-03T05:57:55.643Z,3.90
2022-12-03T06:00:42.536Z,3.90
2022-12-03T06:03:10.831Z,3.80
2022-12-03T06:05:38.220Z,3.90
2022-12-03T06:08:05.527Z,4.00
2022-12-03T06:10:32.652Z,4.10
2022-12-03T06:12:59.623Z,4.10
2022-12-03T06:15:26.773Z,4.10
2022-12-03T06:17:53.658Z,4.10
2022-12-03T06:20:21.423Z,4.10
2022-12-03T06:22:49.398Z,4.10
2022-12-03T06:25:17.245Z,4.00
2022-12-03T06:27:44.234Z,4.00
2022-12-03T06:30:12.802Z,4.00
2022-12-03T06:32:42.279Z,4.00
2022-12-03T06:35:09.652Z,4.00
2022-12-03T06:37:41.365Z,4.10
2022-12-03T06:40:11.624Z,4.00
2022-12-03T06:42:38.547Z,4.00
2022-12-03T06:45:08.713Z,4.00
2022-12-03T06:47:35.892Z,3.90
2022-12-03T06:50:02.875Z,3.90
2022-12-03T06:52:29.850Z,4.00
2022-12-03T06:54:56.865Z,3.90
2022-12-03T06:57:23.822Z,4.00
2022-12-03T06:59:51.186Z,3.90
2022-12-03T07:02:20.875Z,3.80
2022-12-03T07:04:50.327Z,3.80
2022-12-03T07:07:19.374Z,3.90
2022-12-03T07:09:46.411Z,3.90
2022-12-03T07:12:13.369Z,3.90
2022-12-03T07:14:47.163Z,3.80
2022-12-03T07:17:14.543Z,3.80
2022-12-03T07:19:45.975Z,3.90
2022-12-03T07:22:15.219Z,3.90
2022-12-03T07:24:42.369Z,4.00
2022-12-03T07:27:09.324Z,4.00
2022-12-03T07:29:36.799Z,4.00
2022-12-03T07:32:03.966Z,4.10
2022-12-03T07:34:31.804Z,4.10
2022-12-03T07:36:58.766Z,4.00
2022-12-03T07:39:25.864Z,4.00
2022-12-03T07:41:53.052Z,4.10
2022-12-03T07:44:19.998Z,4.20
2022-12-03T07:46:47.032Z,4.20
2022-12-03T07:49:14.140Z,4.30
2022-12-03T07:51:46.190Z,4.30
2022-12-03T07:54:35.202Z,4.30
2022-12-03T07:57:02.611Z,4.40
2022-12-03T07:59:30.275Z,4.40
2022-12-03T08:01:57.192Z,4.60
2022-12-03T08:04:24.849Z,4.60
2022-12-03T08:06:51.871Z,4.70
2022-12-03T08:09:19.111Z,4.80
2022-12-03T08:11:50.695Z,4.80
2022-12-03T08:14:20.550Z,4.70
2022-12-03T08:16:48.489Z,4.80
2022-12-03T08:19:17.144Z,4.80
2022-12-03T08:25:38.089Z,4.90
2022-12-03T08:28:29.763Z,4.80
2022-12-03T08:31:21.207Z,4.60
2022-12-03T08:33:50.982Z,4.40
2022-12-03T08:36:28.244Z,4.30
2022-12-03T08:39:04.468Z,4.30
2022-12-03T08:41:52.323Z,4.30
2022-12-03T08:44:29.835Z,4.50
2022-12-03T08:47:09.315Z,4.70
2022-12-03T08:49:37.194Z,4.90
2022-12-03T08:52:16.064Z,4.90
2022-12-03T08:54:47.787Z,5.10
2022-12-03T08:57:31.080Z,5.10
2022-12-03T09:00:16.317Z,5.00
2022-12-03T09:02:55.513Z,5.00
2022-12-03T09:05:32.386Z,5.00
2022-12-03T09:07:59.652Z,5.00
2022-12-03T09:10:31.336Z,5.00
2022-12-03T09:12:58.369Z,5.10
2022-12-03T09:15:25.411Z,5.20
2022-12-03T09:17:52.546Z,5.30
2022-12-03T09:20:21.591Z,5.40
2022-12-03T09:22:48.755Z,5.50
2022-12-03T09:25:16.572Z,5.50
2022-12-03T09:27:45.962Z,5.60
2022-12-03T09:30:13.237Z,5.40
2022-12-03T09:32:42.330Z,5.60
2022-12-03T09:35:09.948Z,5.80
2022-12-03T09:37:41.469Z,5.80
2022-12-03T09:40:09.656Z,5.90
2022-12-03T09:42:39.767Z,5.90
2022-12-03T09:45:12.589Z,5.90
2022-12-03T09:47:43.947Z,5.90
2022-12-03T09:50:16.657Z,5.80
2022-12-03T09:52:45.403Z,5.60
2022-12-03T09:55:18.158Z,5.50
2022-12-03T09:57:45.288Z,5.40
2022-12-03T10:00:18.971Z,5.30
2022-12-03T10:02:47.689Z,5.20
2022-12-03T10:05:15.249Z,5.20
2022-12-03T10:07:50.401Z,5.20
2022-12-03T10:10:21.797Z,5.20
2022-12-03T10:12:51.397Z,5.20
2022-12-03T10:15:23.865Z,5.20
2022-12-03T10:17:54.646Z,5.20
2022-12-03T10:20:23.976Z,5.20
2022-12-03T10:22:51.008Z,5.30
2022-12-03T10:25:26.780Z,5.30
2022-12-03T10:28:02.465Z,5.20
2022-12-03T10:30:32.156Z,5.40
2022-12-03T10:33:02.861Z,5.40
2022-12-03T10:35:41.244Z,5.30
2022-12-03T10:38:28.927Z,5.40
2022-12-03T10:40:56.000Z,5.40
2022-12-03T10:43:25.404Z,5.50
2022-12-03T10:46:10.396Z,5.50
2022-12-03T10:48:40.199Z,5.50
2022-12-03T10:51:18.380Z,5.60
2022-12-03T10:53:47.524Z,5.50
2022-12-03T10:56:37.259Z,5.60
2022-12-03T10:59:04.438Z,5.60
2022-12-03T11:01:34.687Z,5.50
2022-12-03T11:04:09.561Z,5.50
2022-12-03T11:06:37.126Z,5.30
2022-12-03T11:09:26.883Z,5.30
2022-12-03T11:11:54.565Z,5.40
2022-12-03T11:15:05.217Z,5.30
2022-12-03T11:17:54.050Z,5.30
2022-12-03T11:20:23.128Z,5.20
2022-12-03T11:22:51.203Z,5.10
2022-12-03T11:25:27.531Z,5.10
2022-12-03T11:28:15.478Z,5.20
2022-12-03T11:30:51.855Z,5.30
2022-12-03T11:33:43.313Z,5.20
2022-12-03T11:36:15.543Z,5.20
2022-12-03T11:38:53.311Z,5.30
2022-12-03T11:41:26.257Z,5.30
2022-12-03T11:43:53.252Z,5.40
2022-12-03T11:46:46.577Z,5.50
2022-12-03T11:49:31.181Z,5.60
2022-12-03T11:52:11.840Z,5.50
2022-12-03T11:54:44.115Z,5.50
2022-12-03T11:57:41.783Z,5.50
2022-12-03T12:00:21.605Z,5.60
2022-12-03T12:02:49.327Z,5.50
2022-12-03T12:05:30.590Z,5.50
2022-12-03T12:08:03.335Z,5.50
2022-12-03T12:10:40.846Z,5.50
2022-12-03T12:13:26.275Z,5.60
2022-12-03T12:15:53.460Z,5.50
2022-12-03T12:18:38.111Z,5.40
2022-12-03T12:21:48.096Z,5.20
2022-12-03T12:24:47.009Z,5.20
2022-12-03T12:27:37.933Z,5.20
2022-12-03T12:30:10.606Z,5.00
2022-12-03T12:32:50.188Z,5.10
2022-12-03T12:35:25.722Z,5.30
2022-12-03T12:37:59.562Z,5.40
2022-12-03T12:40:34.629Z,5.30
2022-12-03T12:43:25.928Z,5.30
2022-12-03T12:46:00.811Z,5.30
2022-12-03T12:48:41.503Z,5.20
2022-12-03T12:51:11.199Z,5.20
2022-12-03T12:53:40.404Z,5.10
2022-12-03T12:56:27.535Z,5.00
2022-12-03T12:58:56.992Z,5.10
2022-12-03T13:01:32.230Z,5.00
2022-12-03T13:04:06.137Z,5.10
2022-12-03T13:06:37.574Z,5.00
2022-12-03T13:09:09.111Z,5.00
2022-12-03T13:11:42.149Z,5.00
2022-12-03T13:14:18.999Z,5.00
2022-12-03T13:16:53.367Z,5.00
2022-12-03T13:19:47.575Z,5.10
2022-12-03T13:22:20.134Z,4.90
2022-12-03T13:24:51.264Z,4.90
2022-12-03T13:27:18.199Z,4.80
2022-12-03T13:29:57.467Z,4.90
2022-12-03T13:32:33.499Z,4.90
2022-12-03T13:35:06.297Z,4.90
2022-12-03T13:37:33.664Z,4.80
